sensor_id;sensor_type;location;lat;lon;timestamp;P1;durP1;ratioP1;P2;durP2;ratioP2
60372;SDS011;46216;52.220;5.134;2023-03-01T00:01:11;19.57;;;12.80;;
60372;SDS011;46216;52.220;5.134;2023-03-01T00:03:39;21.10;;;13.07;;
60372;SDS011;46216;52.220;5.134;2023-03-01T00:06:04;19.97;;;12.20;;
60372;SDS011;46216;52.220;5.134;2023-03-01T00:08:31;17.73;;;13.40;;
60372;SDS011;46216;52.220;5.134;2023-03-01T00:13:30;20.10;;;13.80;;
60372;SDS011;46216;52.220;5.134;2023-03-01T00:15:56;19.70;;;12.30;;
60372;SDS011;46216;52.220;5.134;2023-03-01T00:18:22;18.17;;;12.60;;
60372;SDS011;46216;52.220;5.134;2023-03-01T00:20:51;17.90;;;12.67;;
60372;SDS011;46216;52.220;5.134;2023-03-01T00:23:17;18.43;;;12.17;;
60372;SDS011;46216;52.220;5.134;2023-03-01T00:25:42;18.57;;;12.60;;
60372;SDS011;46216;52.220;5.134;2023-03-01T00:28:08;18.47;;;12.93;;
60372;SDS011;46216;52.220;5.134;2023-03-01T00:30:33;19.80;;;13.27;;
60372;SDS011;46216;52.220;5.134;2023-03-01T00:32:59;23.00;;;14.23;;
60372;SDS011;46216;52.220;5.134;2023-03-01T00:35:24;24.33;;;14.40;;
60372;SDS011;46216;52.220;5.134;2023-03-01T00:37:49;20.23;;;13.93;;
60372;SDS011;46216;52.220;5.134;2023-03-01T00:40:26;21.73;;;13.90;;
60372;SDS011;46216;52.220;5.134;2023-03-01T00:42:53;20.77;;;14.17;;
60372;SDS011;46216;52.220;5.134;2023-03-01T00:45:18;19.63;;;13.30;;
60372;SDS011;46216;52.220;5.134;2023-03-01T00:47:44;20.33;;;14.43;;
60372;SDS011;46216;52.220;5.134;2023-03-01T00:50:10;21.83;;;14.43;;
60372;SDS011;46216;52.220;5.134;2023-03-01T00:52:36;22.10;;;14.93;;
60372;SDS011;46216;52.220;5.134;2023-03-01T00:55:03;22.07;;;14.20;;
60372;SDS011;46216;52.220;5.134;2023-03-01T00:57:29;22.83;;;15.43;;
60372;SDS011;46216;52.220;5.134;2023-03-01T00:59:54;22.87;;;14.03;;
60372;SDS011;46216;52.220;5.134;2023-03-01T01:02:20;24.83;;;16.20;;
60372;SDS011;46216;52.220;5.134;2023-03-01T01:04:46;24.60;;;16.60;;
60372;SDS011;46216;52.220;5.134;2023-03-01T01:07:12;26.97;;;17.10;;
60372;SDS011;46216;52.220;5.134;2023-03-01T01:09:38;24.30;;;17.00;;
60372;SDS011;46216;52.220;5.134;2023-03-01T01:12:03;25.80;;;16.47;;
60372;SDS011;46216;52.220;5.134;2023-03-01T01:14:29;25.93;;;16.80;;
60372;SDS011;46216;52.220;5.134;2023-03-01T01:16:55;25.90;;;16.97;;
60372;SDS011;46216;52.220;5.134;2023-03-01T01:19:22;24.80;;;17.20;;
60372;SDS011;46216;52.220;5.134;2023-03-01T01:21:47;27.23;;;17.83;;
60372;SDS011;46216;52.220;5.134;2023-03-01T01:24:13;27.20;;;17.53;;
60372;SDS011;46216;52.220;5.134;2023-03-01T01:26:40;23.43;;;15.93;;
60372;SDS011;46216;52.220;5.134;2023-03-01T01:29:06;24.23;;;16.47;;
60372;SDS011;46216;52.220;5.134;2023-03-01T01:31:32;25.20;;;16.17;;
60372;SDS011;46216;52.220;5.134;2023-03-01T01:33:59;24.77;;;16.20;;
60372;SDS011;46216;52.220;5.134;2023-03-01T01:36:25;22.90;;;15.63;;
60372;SDS011;46216;52.220;5.134;2023-03-01T01:38:51;21.97;;;15.87;;
60372;SDS011;46216;52.220;5.134;2023-03-01T01:41:17;26.37;;;16.33;;
60372;SDS011;46216;52.220;5.134;2023-03-01T01:43:45;23.47;;;16.20;;
60372;SDS011;46216;52.220;5.134;2023-03-01T01:46:33;25.10;;;15.50;;
60372;SDS011;46216;52.220;5.134;2023-03-01T01:49:07;24.37;;;15.93;;
60372;SDS011;46216;52.220;5.134;2023-03-01T01:51:48;23.80;;;15.73;;
60372;SDS011;46216;52.220;5.134;2023-03-01T01:54:21;23.27;;;15.67;;
60372;SDS011;46216;52.220;5.134;2023-03-01T01:56:55;25.80;;;17.17;;
60372;SDS011;46216;52.220;5.134;2023-03-01T01:59:25;27.27;;;16.97;;
60372;SDS011;46216;52.220;5.134;2023-03-01T02:01:54;26.07;;;16.30;;
60372;SDS011;46216;52.220;5.134;2023-03-01T02:04:19;24.97;;;16.67;;
60372;SDS011;46216;52.220;5.134;2023-03-01T02:06:49;26.97;;;16.97;;
60372;SDS011;46216;52.220;5.134;2023-03-01T02:09:21;26.23;;;17.07;;
60372;SDS011;46216;52.220;5.134;2023-03-01T02:11:48;26.03;;;16.50;;
60372;SDS011;46216;52.220;5.134;2023-03-01T02:14:16;25.63;;;16.73;;
60372;SDS011;46216;52.220;5.134;2023-03-01T02:16:41;26.90;;;17.57;;
60372;SDS011;46216;52.220;5.134;2023-03-01T02:19:08;28.00;;;17.17;;
60372;SDS011;46216;52.220;5.134;2023-03-01T02:21:42;26.20;;;17.07;;
60372;SDS011;46216;52.220;5.134;2023-03-01T02:27:16;25.07;;;16.57;;
60372;SDS011;46216;52.220;5.134;2023-03-01T02:29:46;26.20;;;17.77;;
60372;SDS011;46216;52.220;5.134;2023-03-01T02:32:12;25.80;;;18.20;;
60372;SDS011;46216;52.220;5.134;2023-03-01T02:34:40;27.77;;;17.17;;
60372;SDS011;46216;52.220;5.134;2023-03-01T02:37:10;26.60;;;17.50;;
60372;SDS011;46216;52.220;5.134;2023-03-01T02:39:40;26.50;;;17.20;;
60372;SDS011;46216;52.220;5.134;2023-03-01T02:42:11;25.23;;;17.67;;
60372;SDS011;46216;52.220;5.134;2023-03-01T02:44:39;23.53;;;16.77;;
60372;SDS011;46216;52.220;5.134;2023-03-01T02:47:05;31.30;;;17.63;;
60372;SDS011;46216;52.220;5.134;2023-03-01T02:49:32;28.87;;;17.97;;
60372;SDS011;46216;52.220;5.134;2023-03-01T02:54:47;26.20;;;17.03;;
60372;SDS011;46216;52.220;5.134;2023-03-01T02:57:29;24.63;;;16.47;;
60372;SDS011;46216;52.220;5.134;2023-03-01T02:59:57;27.13;;;17.97;;
60372;SDS011;46216;52.220;5.134;2023-03-01T03:02:31;26.57;;;17.93;;
60372;SDS011;46216;52.220;5.134;2023-03-01T03:07:35;29.30;;;16.70;;
60372;SDS011;46216;52.220;5.134;2023-03-01T03:10:02;26.40;;;17.83;;
60372;SDS011;46216;52.220;5.134;2023-03-01T03:12:28;26.73;;;17.13;;
60372;SDS011;46216;52.220;5.134;2023-03-01T03:14:54;24.90;;;16.47;;
60372;SDS011;46216;52.220;5.134;2023-03-01T03:17:19;27.60;;;18.03;;
60372;SDS011;46216;52.220;5.134;2023-03-01T03:19:45;25.67;;;17.13;;
60372;SDS011;46216;52.220;5.134;2023-03-01T03:22:11;29.13;;;17.50;;
60372;SDS011;46216;52.220;5.134;2023-03-01T03:24:37;24.97;;;17.03;;
60372;SDS011;46216;52.220;5.134;2023-03-01T03:27:06;25.23;;;16.97;;
60372;SDS011;46216;52.220;5.134;2023-03-01T03:29:33;27.17;;;16.70;;
60372;SDS011;46216;52.220;5.134;2023-03-01T03:31:58;25.13;;;15.53;;
60372;SDS011;46216;52.220;5.134;2023-03-01T03:34:24;25.40;;;17.43;;
60372;SDS011;46216;52.220;5.134;2023-03-01T03:36:53;27.97;;;16.80;;
60372;SDS011;46216;52.220;5.134;2023-03-01T03:39:22;24.27;;;16.90;;
60372;SDS011;46216;52.220;5.134;2023-03-01T03:41:48;28.73;;;17.43;;
60372;SDS011;46216;52.220;5.134;2023-03-01T03:44:14;26.57;;;16.73;;
60372;SDS011;46216;52.220;5.134;2023-03-01T03:46:39;26.80;;;16.77;;
60372;SDS011;46216;52.220;5.134;2023-03-01T03:49:04;29.77;;;16.83;;
60372;SDS011;46216;52.220;5.134;2023-03-01T03:51:30;26.30;;;17.23;;
60372;SDS011;46216;52.220;5.134;2023-03-01T03:53:55;29.30;;;16.93;;
60372;SDS011;46216;52.220;5.134;2023-03-01T03:56:20;28.00;;;16.40;;
60372;SDS011;46216;52.220;5.134;2023-03-01T03:58:46;25.40;;;16.40;;
60372;SDS011;46216;52.220;5.134;2023-03-01T04:01:11;29.33;;;15.77;;
60372;SDS011;46216;52.220;5.134;2023-03-01T04:03:37;24.27;;;16.67;;
60372;SDS011;46216;52.220;5.134;2023-03-01T04:06:02;23.53;;;15.93;;
60372;SDS011;46216;52.220;5.134;2023-03-01T04:08:29;25.13;;;16.20;;
60372;SDS011;46216;52.220;5.134;2023-03-01T04:11:01;27.70;;;16.83;;
60372;SDS011;46216;52.220;5.134;2023-03-01T04:13:48;24.90;;;15.83;;
60372;SDS011;46216;52.220;5.134;2023-03-01T04:16:14;24.97;;;16.00;;
60372;SDS011;46216;52.220;5.134;2023-03-01T04:18:42;22.87;;;15.47;;
60372;SDS011;46216;52.220;5.134;2023-03-01T04:21:08;27.70;;;16.23;;
60372;SDS011;46216;52.220;5.134;2023-03-01T04:23:34;29.20;;;16.50;;
60372;SDS011;46216;52.220;5.134;2023-03-01T04:26:00;26.50;;;15.97;;
60372;SDS011;46216;52.220;5.134;2023-03-01T04:28:29;26.10;;;15.90;;
60372;SDS011;46216;52.220;5.134;2023-03-01T04:31:01;28.27;;;15.87;;
60372;SDS011;46216;52.220;5.134;2023-03-01T04:33:43;25.83;;;15.87;;
60372;SDS011;46216;52.220;5.134;2023-03-01T04:36:10;27.73;;;16.50;;
60372;SDS011;46216;52.220;5.134;2023-03-01T04:38:38;27.03;;;16.50;;
60372;SDS011;46216;52.220;5.134;2023-03-01T04:41:04;24.83;;;16.00;;
60372;SDS011;46216;52.220;5.134;2023-03-01T04:43:31;25.37;;;15.70;;
60372;SDS011;46216;52.220;5.134;2023-03-01T04:46:03;24.87;;;16.10;;
60372;SDS011;46216;52.220;5.134;2023-03-01T04:48:31;26.43;;;16.97;;
60372;SDS011;46216;52.220;5.134;2023-03-01T04:50:57;25.97;;;15.50;;
60372;SDS011;46216;52.220;5.134;2023-03-01T04:53:24;25.93;;;15.77;;
60372;SDS011;46216;52.220;5.134;2023-03-01T04:55:49;26.73;;;16.57;;
60372;SDS011;46216;52.220;5.134;2023-03-01T04:58:15;26.47;;;16.50;;
60372;SDS011;46216;52.220;5.134;2023-03-01T05:00:40;25.60;;;15.80;;
60372;SDS011;46216;52.220;5.134;2023-03-01T05:03:05;26.17;;;15.40;;
60372;SDS011;46216;52.220;5.134;2023-03-01T05:05:34;26.83;;;15.30;;
60372;SDS011;46216;52.220;5.134;2023-03-01T05:08:07;22.10;;;14.93;;
60372;SDS011;46216;52.220;5.134;2023-03-01T05:10:34;24.83;;;15.23;;
60372;SDS011;46216;52.220;5.134;2023-03-01T05:13:01;24.40;;;14.87;;
60372;SDS011;46216;52.220;5.134;2023-03-01T05:15:28;22.83;;;14.93;;
60372;SDS011;46216;52.220;5.134;2023-03-01T05:17:55;22.83;;;14.67;;
60372;SDS011;46216;52.220;5.134;2023-03-01T05:20:24;24.63;;;15.43;;
60372;SDS011;46216;52.220;5.134;2023-03-01T05:22:54;21.10;;;14.13;;
60372;SDS011;46216;52.220;5.134;2023-03-01T05:25:21;22.90;;;14.40;;
60372;SDS011;46216;52.220;5.134;2023-03-01T05:27:47;21.97;;;14.17;;
60372;SDS011;46216;52.220;5.134;2023-03-01T05:30:12;21.27;;;14.00;;
60372;SDS011;46216;52.220;5.134;2023-03-01T05:32:41;21.53;;;14.13;;
60372;SDS011;46216;52.220;5.134;2023-03-01T05:35:12;20.97;;;14.53;;
60372;SDS011;46216;52.220;5.134;2023-03-01T05:37:42;22.33;;;14.17;;
60372;SDS011;46216;52.220;5.134;2023-03-01T05:40:09;21.33;;;14.10;;
60372;SDS011;46216;52.220;5.134;2023-03-01T05:42:43;21.00;;;13.20;;
60372;SDS011;46216;52.220;5.134;2023-03-01T05:45:13;21.17;;;13.97;;
60372;SDS011;46216;52.220;5.134;2023-03-01T05:47:40;20.00;;;13.17;;
60372;SDS011;46216;52.220;5.134;2023-03-01T05:50:10;20.13;;;13.30;;
60372;SDS011;46216;52.220;5.134;2023-03-01T05:52:39;19.30;;;12.90;;
60372;SDS011;46216;52.220;5.134;2023-03-01T05:55:05;19.83;;;12.93;;
60372;SDS011;46216;52.220;5.134;2023-03-01T05:57:31;18.83;;;13.47;;
60372;SDS011;46216;52.220;5.134;2023-03-01T05:59:56;21.10;;;13.33;;
60372;SDS011;46216;52.220;5.134;2023-03-01T06:02:21;22.70;;;13.80;;
60372;SDS011;46216;52.220;5.134;2023-03-01T06:04:47;20.83;;;13.50;;
60372;SDS011;46216;52.220;5.134;2023-03-01T06:07:12;20.17;;;13.30;;
60372;SDS011;46216;52.220;5.134;2023-03-01T06:09:38;20.00;;;13.10;;
60372;SDS011;46216;52.220;5.134;2023-03-01T06:12:03;21.53;;;12.60;;
60372;SDS011;46216;52.220;5.134;2023-03-01T06:14:29;20.53;;;13.17;;
60372;SDS011;46216;52.220;5.134;2023-03-01T06:16:55;22.07;;;14.13;;
60372;SDS011;46216;52.220;5.134;2023-03-01T06:19:20;21.83;;;14.07;;
60372;SDS011;46216;52.220;5.134;2023-03-01T06:21:45;22.17;;;13.87;;
60372;SDS011;46216;52.220;5.134;2023-03-01T06:24:11;21.97;;;13.57;;
60372;SDS011;46216;52.220;5.134;2023-03-01T06:26:36;21.13;;;14.13;;
60372;SDS011;46216;52.220;5.134;2023-03-01T06:29:02;21.63;;;13.87;;
60372;SDS011;46216;52.220;5.134;2023-03-01T06:31:27;22.23;;;14.33;;
60372;SDS011;46216;52.220;5.134;2023-03-01T06:33:52;23.67;;;13.70;;
60372;SDS011;46216;52.220;5.134;2023-03-01T06:36:18;22.37;;;14.30;;
60372;SDS011;46216;52.220;5.134;2023-03-01T06:38:46;21.60;;;13.73;;
60372;SDS011;46216;52.220;5.134;2023-03-01T06:41:11;21.37;;;13.83;;
60372;SDS011;46216;52.220;5.134;2023-03-01T06:43:36;21.40;;;14.20;;
60372;SDS011;46216;52.220;5.134;2023-03-01T06:46:05;22.50;;;14.33;;
60372;SDS011;46216;52.220;5.134;2023-03-01T06:48:32;25.23;;;14.57;;
60372;SDS011;46216;52.220;5.134;2023-03-01T06:50:58;23.47;;;14.43;;
60372;SDS011;46216;52.220;5.134;2023-03-01T06:53:25;23.60;;;14.57;;
60372;SDS011;46216;52.220;5.134;2023-03-01T06:55:58;23.13;;;15.43;;
60372;SDS011;46216;52.220;5.134;2023-03-01T06:58:25;22.70;;;15.03;;
60372;SDS011;46216;52.220;5.134;2023-03-01T07:00:51;26.10;;;15.63;;
60372;SDS011;46216;52.220;5.134;2023-03-01T07:03:16;22.73;;;14.90;;
60372;SDS011;46216;52.220;5.134;2023-03-01T07:05:42;22.47;;;15.13;;
60372;SDS011;46216;52.220;5.134;2023-03-01T07:08:07;24.03;;;15.43;;
60372;SDS011;46216;52.220;5.134;2023-03-01T07:10:32;27.27;;;15.30;;
60372;SDS011;46216;52.220;5.134;2023-03-01T07:12:58;25.43;;;15.00;;
60372;SDS011;46216;52.220;5.134;2023-03-01T07:15:25;23.73;;;15.03;;
60372;SDS011;46216;52.220;5.134;2023-03-01T07:17:51;26.30;;;15.07;;
60372;SDS011;46216;52.220;5.134;2023-03-01T07:20:19;24.70;;;15.50;;
60372;SDS011;46216;52.220;5.134;2023-03-01T07:22:50;27.00;;;16.27;;
60372;SDS011;46216;52.220;5.134;2023-03-01T07:25:19;25.87;;;15.50;;
60372;SDS011;46216;52.220;5.134;2023-03-01T07:27:48;25.80;;;16.07;;
60372;SDS011;46216;52.220;5.134;2023-03-01T07:30:15;27.80;;;17.03;;
60372;SDS011;46216;52.220;5.134;2023-03-01T07:32:40;27.33;;;16.97;;
60372;SDS011;46216;52.220;5.134;2023-03-01T07:35:06;26.33;;;15.60;;
60372;SDS011;46216;52.220;5.134;2023-03-01T07:37:31;28.20;;;16.50;;
60372;SDS011;46216;52.220;5.134;2023-03-01T07:39:57;27.60;;;16.63;;
60372;SDS011;46216;52.220;5.134;2023-03-01T07:42:22;28.00;;;18.20;;
60372;SDS011;46216;52.220;5.134;2023-03-01T07:44:48;28.17;;;17.10;;
60372;SDS011;46216;52.220;5.134;2023-03-01T07:47:13;28.37;;;17.23;;
60372;SDS011;46216;52.220;5.134;2023-03-01T07:49:39;30.17;;;18.50;;
60372;SDS011;46216;52.220;5.134;2023-03-01T07:52:04;33.57;;;19.07;;
60372;SDS011;46216;52.220;5.134;2023-03-01T07:54:29;30.37;;;19.07;;
60372;SDS011;46216;52.220;5.134;2023-03-01T07:56:56;32.00;;;19.13;;
60372;SDS011;46216;52.220;5.134;2023-03-01T07:59:21;32.13;;;19.00;;
60372;SDS011;46216;52.220;5.134;2023-03-01T08:01:48;35.17;;;20.67;;
60372;SDS011;46216;52.220;5.134;2023-03-01T08:04:15;37.00;;;21.93;;
60372;SDS011;46216;52.220;5.134;2023-03-01T08:06:40;38.07;;;21.70;;
60372;SDS011;46216;52.220;5.134;2023-03-01T08:09:05;41.40;;;23.97;;
60372;SDS011;46216;52.220;5.134;2023-03-01T08:11:31;35.17;;;21.93;;
60372;SDS011;46216;52.220;5.134;2023-03-01T08:13:56;42.13;;;23.10;;
60372;SDS011;46216;52.220;5.134;2023-03-01T08:16:22;39.90;;;23.57;;
60372;SDS011;46216;52.220;5.134;2023-03-01T08:18:48;38.60;;;23.60;;
60372;SDS011;46216;52.220;5.134;2023-03-01T08:21:14;40.90;;;24.93;;
60372;SDS011;46216;52.220;5.134;2023-03-01T08:23:42;40.63;;;23.40;;
60372;SDS011;46216;52.220;5.134;2023-03-01T08:26:09;37.90;;;22.43;;
60372;SDS011;46216;52.220;5.134;2023-03-01T08:28:43;34.30;;;21.33;;
60372;SDS011;46216;52.220;5.134;2023-03-01T08:33:46;29.87;;;18.17;;
60372;SDS011;46216;52.220;5.134;2023-03-01T08:36:15;23.77;;;17.10;;
60372;SDS011;46216;52.220;5.134;2023-03-01T08:38:42;22.33;;;15.13;;
60372;SDS011;46216;52.220;5.134;2023-03-01T08:41:07;21.17;;;14.82;;
60372;SDS011;46216;52.220;5.134;2023-03-01T08:43:32;19.80;;;13.60;;
60372;SDS011;46216;52.220;5.134;2023-03-01T08:45:58;22.03;;;13.83;;
60372;SDS011;46216;52.220;5.134;2023-03-01T08:48:23;16.98;;;12.35;;
60372;SDS011;46216;52.220;5.134;2023-03-01T08:50:48;17.80;;;12.47;;
60372;SDS011;46216;52.220;5.134;2023-03-01T08:53:14;17.77;;;12.10;;
60372;SDS011;46216;52.220;5.134;2023-03-01T08:55:39;16.77;;;11.77;;
60372;SDS011;46216;52.220;5.134;2023-03-01T08:58:04;15.32;;;10.70;;
60372;SDS011;46216;52.220;5.134;2023-03-01T09:00:30;14.88;;;10.38;;
60372;SDS011;46216;52.220;5.134;2023-03-01T09:02:55;16.55;;;10.95;;
60372;SDS011;46216;52.220;5.134;2023-03-01T09:05:20;13.15;;;10.60;;
60372;SDS011;46216;52.220;5.134;2023-03-01T09:07:45;13.38;;;10.70;;
60372;SDS011;46216;52.220;5.134;2023-03-01T09:10:11;13.63;;;10.27;;
60372;SDS011;46216;52.220;5.134;2023-03-01T09:12:36;14.13;;;10.45;;
60372;SDS011;46216;52.220;5.134;2023-03-01T09:15:01;14.13;;;10.57;;
60372;SDS011;46216;52.220;5.134;2023-03-01T09:17:27;13.73;;;9.00;;
60372;SDS011;46216;52.220;5.134;2023-03-01T09:19:53;11.07;;;8.15;;
60372;SDS011;46216;52.220;5.134;2023-03-01T09:22:18;10.43;;;8.50;;
60372;SDS011;46216;52.220;5.134;2023-03-01T09:24:43;12.20;;;8.82;;
60372;SDS011;46216;52.220;5.134;2023-03-01T09:27:09;12.32;;;9.00;;
60372;SDS011;46216;52.220;5.134;2023-03-01T09:29:35;13.77;;;9.43;;
60372;SDS011;46216;52.220;5.134;2023-03-01T09:32:01;10.73;;;8.10;;
60372;SDS011;46216;52.220;5.134;2023-03-01T09:34:27;14.18;;;9.15;;
60372;SDS011;46216;52.220;5.134;2023-03-01T09:36:52;10.88;;;8.10;;
60372;SDS011;46216;52.220;5.134;2023-03-01T09:39:18;13.13;;;9.57;;
60372;SDS011;46216;52.220;5.134;2023-03-01T09:44:21;10.95;;;8.32;;
60372;SDS011;46216;52.220;5.134;2023-03-01T09:47:01;11.35;;;8.00;;
60372;SDS011;46216;52.220;5.134;2023-03-01T09:49:28;11.95;;;7.78;;
60372;SDS011;46216;52.220;5.134;2023-03-01T09:54:29;13.27;;;8.55;;
60372;SDS011;46216;52.220;5.134;2023-03-01T09:57:05;12.23;;;7.90;;
60372;SDS011;46216;52.220;5.134;2023-03-01T09:59:44;14.65;;;8.65;;
60372;SDS011;46216;52.220;5.134;2023-03-01T10:02:38;11.07;;;7.93;;
60372;SDS011;46216;52.220;5.134;2023-03-01T10:05:15;11.80;;;7.75;;
60372;SDS011;46216;52.220;5.134;2023-03-01T10:10:36;10.65;;;7.68;;
60372;SDS011;46216;52.220;5.134;2023-03-01T10:13:05;9.18;;;6.75;;
60372;SDS011;46216;52.220;5.134;2023-03-01T10:15:44;9.00;;;6.65;;
60372;SDS011;46216;52.220;5.134;2023-03-01T10:18:16;8.75;;;7.00;;
60372;SDS011;46216;52.220;5.134;2023-03-01T10:20:56;7.68;;;5.40;;
60372;SDS011;46216;52.220;5.134;2023-03-01T10:23:25;7.82;;;5.30;;
60372;SDS011;46216;52.220;5.134;2023-03-01T10:28:56;6.30;;;4.25;;
60372;SDS011;46216;52.220;5.134;2023-03-01T10:31:32;6.95;;;4.53;;
60372;SDS011;46216;52.220;5.134;2023-03-01T10:34:08;7.88;;;4.63;;
60372;SDS011;46216;52.220;5.134;2023-03-01T10:36:49;6.38;;;4.63;;
60372;SDS011;46216;52.220;5.134;2023-03-01T10:39:20;5.45;;;4.32;;
60372;SDS011;46216;52.220;5.134;2023-03-01T10:42:10;6.35;;;4.90;;
60372;SDS011;46216;52.220;5.134;2023-03-01T10:44:47;6.38;;;4.50;;
60372;SDS011;46216;52.220;5.134;2023-03-01T10:47:15;5.72;;;4.05;;
60372;SDS011;46216;52.220;5.134;2023-03-01T10:52:19;6.72;;;3.97;;
60372;SDS011;46216;52.220;5.134;2023-03-01T10:54:54;5.97;;;4.40;;
60372;SDS011;46216;52.220;5.134;2023-03-01T10:57:27;6.32;;;4.57;;
60372;SDS011;46216;52.220;5.134;2023-03-01T11:00:10;9.10;;;4.70;;
60372;SDS011;46216;52.220;5.134;2023-03-01T11:05:34;6.72;;;4.55;;
60372;SDS011;46216;52.220;5.134;2023-03-01T11:08:01;5.07;;;4.10;;
60372;SDS011;46216;52.220;5.134;2023-03-01T11:10:34;6.68;;;5.10;;
60372;SDS011;46216;52.220;5.134;2023-03-01T11:15:32;6.57;;;4.55;;
60372;SDS011;46216;52.220;5.134;2023-03-01T11:17:57;7.90;;;4.72;;
60372;SDS011;46216;52.220;5.134;2023-03-01T11:20:27;6.32;;;4.70;;
60372;SDS011;46216;52.220;5.134;2023-03-01T11:23:04;6.63;;;4.57;;
60372;SDS011;46216;52.220;5.134;2023-03-01T11:25:39;10.20;;;4.65;;
60372;SDS011;46216;52.220;5.134;2023-03-01T11:28:10;6.00;;;4.85;;
60372;SDS011;46216;52.220;5.134;2023-03-01T11:33:17;5.82;;;4.70;;
60372;SDS011;46216;52.220;5.134;2023-03-01T11:35:46;5.22;;;4.45;;
60372;SDS011;46216;52.220;5.134;2023-03-01T11:38:21;5.75;;;4.18;;
60372;SDS011;46216;52.220;5.134;2023-03-01T11:54:13;7.35;;;4.20;;
60372;SDS011;46216;52.220;5.134;2023-03-01T11:56:47;6.10;;;4.70;;
60372;SDS011;46216;52.220;5.134;2023-03-01T11:59:25;6.72;;;4.65;;
60372;SDS011;46216;52.220;5.134;2023-03-01T12:10:14;5.93;;;4.70;;
60372;SDS011;46216;52.220;5.134;2023-03-01T12:18:26;5.72;;;4.32;;
60372;SDS011;46216;52.220;5.134;2023-03-01T12:27:21;5.97;;;4.97;;
60372;SDS011;46216;52.220;5.134;2023-03-01T12:29:40;7.05;;;5.40;;
60372;SDS011;46216;52.220;5.134;2023-03-01T12:32:15;5.90;;;4.82;;
60372;SDS011;46216;52.220;5.134;2023-03-01T12:37:58;5.65;;;4.68;;
60372;SDS011;46216;52.220;5.134;2023-03-01T12:46:17;6.15;;;4.63;;
60372;SDS011;46216;52.220;5.134;2023-03-01T12:49:06;5.82;;;4.55;;
60372;SDS011;46216;52.220;5.134;2023-03-01T12:51:32;5.57;;;4.30;;
60372;SDS011;46216;52.220;5.134;2023-03-01T12:54:01;5.53;;;4.22;;
60372;SDS011;46216;52.220;5.134;2023-03-01T12:56:37;5.82;;;4.40;;
60372;SDS011;46216;52.220;5.134;2023-03-01T13:09:51;5.35;;;4.20;;
60372;SDS011;46216;52.220;5.134;2023-03-01T13:17:50;5.82;;;4.13;;
60372;SDS011;46216;52.220;5.134;2023-03-01T13:20:17;8.55;;;4.13;;
60372;SDS011;46216;52.220;5.134;2023-03-01T13:22:45;8.00;;;3.97;;
60372;SDS011;46216;52.220;5.134;2023-03-01T13:25:16;5.38;;;3.97;;
60372;SDS011;46216;52.220;5.134;2023-03-01T13:27:43;4.88;;;4.25;;
60372;SDS011;46216;52.220;5.134;2023-03-01T13:35:52;4.63;;;4.10;;
60372;SDS011;46216;52.220;5.134;2023-03-01T13:41:16;5.10;;;3.97;;
60372;SDS011;46216;52.220;5.134;2023-03-01T13:44:11;4.65;;;3.83;;
60372;SDS011;46216;52.220;5.134;2023-03-01T13:46:59;4.82;;;3.80;;
60372;SDS011;46216;52.220;5.134;2023-03-01T13:49:50;6.35;;;3.83;;
60372;SDS011;46216;52.220;5.134;2023-03-01T13:57:43;5.38;;;4.00;;
60372;SDS011;46216;52.220;5.134;2023-03-01T14:03:05;4.95;;;3.53;;
60372;SDS011;46216;52.220;5.134;2023-03-01T14:05:35;4.80;;;3.80;;
60372;SDS011;46216;52.220;5.134;2023-03-01T14:08:05;6.15;;;3.90;;
60372;SDS011;46216;52.220;5.134;2023-03-01T14:14:10;4.65;;;3.67;;
60372;SDS011;46216;52.220;5.134;2023-03-01T14:21:41;4.43;;;3.40;;
60372;SDS011;46216;52.220;5.134;2023-03-01T14:24:13;4.93;;;3.45;;
60372;SDS011;46216;52.220;5.134;2023-03-01T14:26:42;4.70;;;3.78;;
60372;SDS011;46216;52.220;5.134;2023-03-01T14:29:22;5.70;;;3.80;;
60372;SDS011;46216;52.220;5.134;2023-03-01T14:31:52;4.13;;;3.63;;
60372;SDS011;46216;52.220;5.134;2023-03-01T14:34:21;4.38;;;3.40;;
60372;SDS011;46216;52.220;5.134;2023-03-01T14:36:48;4.97;;;3.60;;
60372;SDS011;46216;52.220;5.134;2023-03-01T14:39:18;6.00;;;4.25;;
60372;SDS011;46216;52.220;5.134;2023-03-01T14:41:44;6.28;;;4.00;;
60372;SDS011;46216;52.220;5.134;2023-03-01T14:44:19;4.82;;;4.10;;
60372;SDS011;46216;52.220;5.134;2023-03-01T14:46:51;4.63;;;3.88;;
60372;SDS011;46216;52.220;5.134;2023-03-01T14:49:24;6.38;;;3.67;;
60372;SDS011;46216;52.220;5.134;2023-03-01T14:51:59;4.95;;;4.07;;
60372;SDS011;46216;52.220;5.134;2023-03-01T14:54:41;5.07;;;3.83;;
60372;SDS011;46216;52.220;5.134;2023-03-01T14:57:14;5.10;;;4.20;;
60372;SDS011;46216;52.220;5.134;2023-03-01T14:59:44;5.22;;;3.90;;
60372;SDS011;46216;52.220;5.134;2023-03-01T15:02:17;4.47;;;3.92;;
60372;SDS011;46216;52.220;5.134;2023-03-01T15:04:45;5.10;;;4.40;;
60372;SDS011;46216;52.220;5.134;2023-03-01T15:07:13;5.82;;;4.07;;
60372;SDS011;46216;52.220;5.134;2023-03-01T15:09:39;6.85;;;4.40;;
60372;SDS011;46216;52.220;5.134;2023-03-01T15:14:52;5.28;;;3.97;;
60372;SDS011;46216;52.220;5.134;2023-03-01T15:17:32;5.45;;;3.92;;
60372;SDS011;46216;52.220;5.134;2023-03-01T15:20:03;4.57;;;4.10;;
60372;SDS011;46216;52.220;5.134;2023-03-01T15:22:32;5.13;;;4.40;;
60372;SDS011;46216;52.220;5.134;2023-03-01T15:24:57;4.93;;;4.35;;
60372;SDS011;46216;52.220;5.134;2023-03-01T15:27:23;5.00;;;4.28;;
60372;SDS011;46216;52.220;5.134;2023-03-01T15:29:52;6.30;;;3.92;;
60372;SDS011;46216;52.220;5.134;2023-03-01T15:32:32;5.55;;;3.75;;
60372;SDS011;46216;52.220;5.134;2023-03-01T15:35:00;4.72;;;4.07;;
60372;SDS011;46216;52.220;5.134;2023-03-01T15:37:46;7.90;;;3.88;;
60372;SDS011;46216;52.220;5.134;2023-03-01T15:40:17;5.88;;;4.18;;
60372;SDS011;46216;52.220;5.134;2023-03-01T15:43:04;8.23;;;4.38;;
60372;SDS011;46216;52.220;5.134;2023-03-01T15:45:30;7.68;;;4.82;;
60372;SDS011;46216;52.220;5.134;2023-03-01T15:48:05;6.20;;;4.93;;
60372;SDS011;46216;52.220;5.134;2023-03-01T15:50:42;6.65;;;4.60;;
60372;SDS011;46216;52.220;5.134;2023-03-01T15:53:12;5.68;;;4.40;;
60372;SDS011;46216;52.220;5.134;2023-03-01T15:55:39;5.05;;;4.47;;
60372;SDS011;46216;52.220;5.134;2023-03-01T15:58:06;7.65;;;5.03;;
60372;SDS011;46216;52.220;5.134;2023-03-01T16:00:37;5.78;;;4.60;;
60372;SDS011;46216;52.220;5.134;2023-03-01T16:03:04;6.60;;;4.78;;
60372;SDS011;46216;52.220;5.134;2023-03-01T16:05:33;5.43;;;4.32;;
60372;SDS011;46216;52.220;5.134;2023-03-01T16:08:00;5.57;;;4.38;;
60372;SDS011;46216;52.220;5.134;2023-03-01T16:10:26;6.35;;;4.55;;
60372;SDS011;46216;52.220;5.134;2023-03-01T16:12:51;6.50;;;5.10;;
60372;SDS011;46216;52.220;5.134;2023-03-01T16:17:46;6.07;;;4.63;;
60372;SDS011;46216;52.220;5.134;2023-03-01T16:20:11;7.72;;;6.20;;
60372;SDS011;46216;52.220;5.134;2023-03-01T16:22:37;6.22;;;4.90;;
60372;SDS011;46216;52.220;5.134;2023-03-01T16:25:03;7.07;;;5.25;;
60372;SDS011;46216;52.220;5.134;2023-03-01T16:27:28;6.25;;;4.75;;
60372;SDS011;46216;52.220;5.134;2023-03-01T16:29:53;8.23;;;4.60;;
60372;SDS011;46216;52.220;5.134;2023-03-01T16:32:19;7.40;;;4.70;;
60372;SDS011;46216;52.220;5.134;2023-03-01T16:34:44;6.30;;;4.60;;
60372;SDS011;46216;52.220;5.134;2023-03-01T16:37:12;8.65;;;4.68;;
60372;SDS011;46216;52.220;5.134;2023-03-01T16:39:38;6.18;;;4.30;;
60372;SDS011;46216;52.220;5.134;2023-03-01T16:42:03;7.15;;;5.03;;
60372;SDS011;46216;52.220;5.134;2023-03-01T16:44:28;8.25;;;5.00;;